createdAt,value
2023-03-01T00:02:56.948Z,-2.063293
2023-03-01T00:06:22.062Z,-2.304993
2023-03-01T00:09:47.251Z,-2.385559
2023-03-01T00:13:12.422Z,-2.385559
2023-03-01T00:16:37.610Z,-2.214355
2023-03-01T00:20:02.709Z,-2.053223
2023-03-01T00:23:27.851Z,-1.882019
2023-03-01T00:26:52.990Z,-1.851807
2023-03-01T00:30:18.200Z,-1.912231
2023-03-01T00:33:43.342Z,-2.214355
2023-03-01T00:37:08.516Z,-2.234497
2023-03-01T00:40:33.668Z,-2.164001
2023-03-01T00:43:58.823Z,-2.516479
2023-03-01T00:47:24.025Z,-2.858887
2023-03-01T00:50:49.160Z,-2.889099
2023-03-01T00:54:14.346Z,-2.858887
2023-03-01T00:57:40.499Z,-2.858887
2023-03-01T01:01:05.660Z,-2.677612
2023-03-01T01:04:30.817Z,-2.556763
2023-03-01T01:07:55.961Z,-2.385559
2023-03-01T01:11:21.149Z,-2.315063
2023-03-01T01:14:46.329Z,-2.27478
2023-03-01T01:18:11.530Z,-2.294922
2023-03-01T01:21:36.698Z,-2.476196
2023-03-01T01:25:01.844Z,-2.627258
2023-03-01T01:28:26.992Z,-2.556763
2023-03-01T01:31:52.193Z,-2.445984
2023-03-01T01:35:17.341Z,-2.415771
2023-03-01T01:38:42.546Z,-2.486267
2023-03-01T01:42:07.678Z,-2.556763
2023-03-01T01:45:32.872Z,-2.657471
2023-03-01T01:48:58.046Z,-2.76825
2023-03-01T01:52:23.226Z,-2.77832
2023-03-01T01:55:48.416Z,-2.738037
2023-03-01T01:59:13.593Z,-2.76825
2023-03-01T02:02:38.853Z,-2.677612
2023-03-01T02:06:03.966Z,-2.76825
2023-03-01T02:09:29.123Z,-2.627258
2023-03-01T02:12:54.302Z,-2.738037
2023-03-01T02:16:19.524Z,-2.697754
2023-03-01T02:19:44.621Z,-2.657471
2023-03-01T02:23:09.759Z,-2.677612
2023-03-01T02:26:34.910Z,-2.697754
2023-03-01T02:30:00.130Z,-2.808533
2023-03-01T02:33:25.253Z,-2.889099
2023-03-01T02:36:50.401Z,-2.889099
2023-03-01T02:40:15.551Z,-2.818604
2023-03-01T02:43:40.728Z,-2.818604
2023-03-01T02:47:05.917Z,-2.889099
2023-03-01T02:50:31.069Z,-2.909241
2023-03-01T02:53:56.210Z,-2.889099
2023-03-01T02:57:21.362Z,-2.838745
2023-03-01T03:00:46.657Z,-2.969666
2023-03-01T03:04:11.703Z,-2.989807
2023-03-01T03:07:36.855Z,-3.070374
2023-03-01T03:11:02.043Z,-3.060303
2023-03-01T03:14:27.219Z,-3.03009
2023-03-01T03:17:52.410Z,-2.919312
2023-03-01T03:21:17.592Z,-2.939453
2023-03-01T03:24:42.729Z,-2.848816
2023-03-01T03:28:07.887Z,-2.999878
2023-03-01T03:31:33.083Z,-3.03009
2023-03-01T03:34:58.264Z,-3.070374
2023-03-01T03:38:23.388Z,-3.03009
2023-03-01T03:41:48.534Z,-2.989807
2023-03-01T03:45:13.686Z,-2.989807
2023-03-01T03:48:38.847Z,-2.969666
2023-03-01T03:52:04.002Z,-2.889099
2023-03-01T03:55:29.185Z,-2.848816
2023-03-01T03:58:54.323Z,-2.838745
2023-03-01T04:02:19.506Z,-2.848816
2023-03-01T04:05:44.624Z,-2.939453
2023-03-01T04:09:09.766Z,-2.919312
2023-03-01T04:12:34.959Z,-2.818604
2023-03-01T04:16:00.099Z,-2.989807
2023-03-01T04:19:25.266Z,-2.999878
2023-03-01T04:22:50.385Z,-3.050232
2023-03-01T04:26:15.598Z,-2.909241
2023-03-01T04:29:40.787Z,-2.969666
2023-03-01T04:33:05.921Z,-2.959595
2023-03-01T04:36:31.814Z,-2.969666
2023-03-01T04:39:56.833Z,-2.939453
2023-03-01T04:43:21.996Z,-2.959595
2023-03-01T04:46:47.196Z,-2.999878
2023-03-01T04:50:12.340Z,-2.959595
2023-03-01T04:53:37.542Z,-2.999878
2023-03-01T04:57:02.710Z,-3.060303
2023-03-01T05:00:27.876Z,-3.090515
2023-03-01T05:03:53.053Z,-3.120728
2023-03-01T05:07:18.171Z,-3.201294
2023-03-01T05:10:43.334Z,-3.241577
2023-03-01T05:14:08.492Z,-3.463135
2023-03-01T05:17:33.683Z,-3.332214
2023-03-01T05:20:58.888Z,-3.251648
2023-03-01T05:24:25.023Z,-3.15094
2023-03-01T05:27:50.193Z,-3.050232
2023-03-01T05:31:15.361Z,-3.070374
2023-03-01T05:34:40.524Z,-3.181152
2023-03-01T05:38:05.724Z,-3.231506
2023-03-01T05:41:30.850Z,-3.422852
2023-03-01T05:44:56.015Z,-3.412781
2023-03-01T05:48:21.162Z,-3.382568
2023-03-01T05:51:46.315Z,-3.332214
2023-03-01T05:55:11.537Z,-3.251648
2023-03-01T05:58:36.684Z,-3.211365
2023-03-01T06:02:01.859Z,-3.140869
2023-03-01T06:05:27.075Z,-3.140869
2023-03-01T06:08:52.172Z,-3.050232
2023-03-01T06:12:17.372Z,-3.03009
2023-03-01T06:15:42.529Z,-3.03009
2023-03-01T06:19:07.672Z,-3.090515
2023-03-01T06:22:32.863Z,-3.120728
2023-03-01T06:25:58.061Z,-3.070374
2023-03-01T06:29:23.256Z,-3.03009
2023-03-01T06:32:48.490Z,-2.969666
2023-03-01T06:36:13.681Z,-2.919312
2023-03-01T06:39:38.829Z,-2.838745
2023-03-01T06:43:03.989Z,-2.77832
2023-03-01T06:46:29.573Z,-2.838745
2023-03-01T06:49:54.361Z,-2.858887
2023-03-01T06:53:19.579Z,-2.77832
2023-03-01T06:56:44.718Z,-2.727966
2023-03-01T07:00:09.870Z,-2.707825
2023-03-01T07:06:53.060Z,-2.667542
2023-03-01T07:10:18.376Z,-2.52655
2023-03-01T07:13:43.595Z,-2.425842
2023-03-01T07:17:08.778Z,-2.294922
2023-03-01T07:20:33.926Z,-2.445984
2023-03-01T07:23:59.145Z,-2.365417
2023-03-01T07:27:24.298Z,-2.103577
2023-03-01T07:30:49.474Z,-2.103577
2023-03-01T07:34:14.647Z,-2.294922
2023-03-01T07:37:39.816Z,-2.657471
2023-03-01T07:41:05.060Z,-2.848816
2023-03-01T07:44:30.183Z,-2.788391
2023-03-01T07:47:55.369Z,-2.77832
2023-03-01T07:51:21.899Z,-2.959595
2023-03-01T07:54:46.137Z,-2.889099
2023-03-01T07:58:11.335Z,-2.76825
2023-03-01T08:01:36.489Z,-2.657471
2023-03-01T08:05:01.650Z,-2.315063
2023-03-01T08:08:27.964Z,-1.952515
2023-03-01T08:11:53.823Z,-1.610107
2023-03-01T08:15:19.215Z,-1.579895
2023-03-01T08:18:45.394Z,-1.579895
2023-03-01T08:22:10.555Z,-1.579895
2023-03-01T08:25:35.739Z,-1.368408
2023-03-01T08:29:00.899Z,-1.348267
2023-03-01T08:32:26.131Z,-1.328125
2023-03-01T08:35:51.349Z,-1.408691
2023-03-01T08:39:16.502Z,-1.64032
2023-03-01T08:42:41.599Z,-1.448975
2023-03-01T08:46:06.823Z,-1.146851
2023-03-01T08:49:31.980Z,-0.905151
2023-03-01T08:52:57.139Z,-0.834656
2023-03-01T08:56:22.310Z,-0.76416
2023-03-01T08:59:47.491Z,-0.643311
2023-03-01T09:03:12.653Z,-0.613098
2023-03-01T09:06:37.853Z,-0.542603
2023-03-01T09:10:03.037Z,-0.401611
2023-03-01T09:13:28.248Z,-0.331116
2023-03-01T09:16:53.475Z,-0.26062
2023-03-01T09:20:18.605Z,-0.149841
2023-03-01T09:23:43.812Z,-0.079346
2023-03-01T09:27:08.968Z,-0.028992
2023-03-01T09:30:34.216Z,-0.049133
2023-03-01T09:33:59.320Z,0.041504
2023-03-01T09:37:24.512Z,0.232849
2023-03-01T09:40:49.660Z,0.333557
2023-03-01T09:44:14.806Z,0.36377
2023-03-01T09:47:40.013Z,0.333557
2023-03-01T09:51:05.151Z,0.353699
2023-03-01T09:54:30.328Z,0.49469
2023-03-01T09:57:55.510Z,0.24292
2023-03-01T10:01:20.672Z,0.182495
2023-03-01T10:04:45.874Z,0.414124
2023-03-01T10:08:11.031Z,0.61554
2023-03-01T10:11:36.775Z,0.61554
2023-03-01T10:15:01.479Z,0.49469
2023-03-01T10:18:26.674Z,0.595398
2023-03-01T10:21:51.880Z,0.565186
2023-03-01T10:25:17.087Z,0.786743
2023-03-01T10:28:42.276Z,0.74646
2023-03-01T10:32:07.696Z,0.86731
2023-03-01T10:35:32.714Z,1.078796
2023-03-01T10:38:57.915Z,1.270142
2023-03-01T10:42:23.080Z,1.300354
2023-03-01T10:45:48.329Z,1.11908
2023-03-01T10:49:13.797Z,1.451416
2023-03-01T10:52:38.951Z,1.441345
2023-03-01T10:56:04.220Z,1.662903
2023-03-01T10:59:29.484Z,1.803894
2023-03-01T11:02:54.807Z,1.904602
2023-03-01T11:06:20.179Z,1.87439
2023-03-01T11:09:45.482Z,1.995239
2023-03-01T11:13:10.762Z,2.206726
2023-03-01T11:16:36.069Z,2.055664
2023-03-01T11:20:02.765Z,2.085876
2023-03-01T11:23:26.582Z,2.297363
2023-03-01T11:26:51.791Z,2.307434
2023-03-01T11:30:17.042Z,2.528992
2023-03-01T11:33:42.262Z,2.37793
2023-03-01T11:37:07.466Z,2.569275
2023-03-01T11:40:32.705Z,2.639771
2023-03-01T11:43:57.915Z,2.659912
2023-03-01T11:47:23.343Z,2.810974
2023-03-01T11:50:48.407Z,2.810974
2023-03-01T11:54:13.704Z,2.236938
2023-03-01T11:57:43.628Z,2.267151
2023-03-01T12:01:04.166Z,2.408142
2023-03-01T12:04:29.449Z,2.6297
2023-03-01T12:07:54.659Z,2.609558
2023-03-01T12:11:20.006Z,2.599487
2023-03-01T12:14:45.436Z,2.599487
2023-03-01T12:18:10.817Z,2.821045
2023-03-01T12:21:36.141Z,2.891541
2023-03-01T12:25:01.408Z,2.871399
2023-03-01T12:28:26.624Z,2.720337
2023-03-01T12:31:51.963Z,2.710266
2023-03-01T12:35:17.105Z,2.770691
2023-03-01T12:38:42.487Z,2.780762
2023-03-01T12:42:07.728Z,2.669983
2023-03-01T12:45:33.071Z,2.37793
2023-03-01T12:48:58.345Z,2.388
2023-03-01T12:52:23.594Z,2.599487
2023-03-01T12:55:48.882Z,2.599487
2023-03-01T12:59:14.093Z,2.720337
2023-03-01T13:02:39.338Z,2.6297
2023-03-01T13:06:04.547Z,2.720337
2023-03-01T13:09:29.694Z,2.599487
2023-03-01T13:12:54.938Z,2.599487
2023-03-01T13:16:20.161Z,2.720337
2023-03-01T13:19:45.664Z,2.720337
2023-03-01T13:23:10.856Z,2.810974
2023-03-01T13:26:36.026Z,2.669983
2023-03-01T13:30:01.175Z,2.599487
2023-03-01T13:33:26.334Z,2.528992
2023-03-01T13:36:52.540Z,2.37793
2023-03-01T13:40:17.852Z,2.176514
2023-03-01T13:43:42.903Z,2.236938
2023-03-01T13:47:08.234Z,2.166443
2023-03-01T13:50:33.260Z,2.176514
2023-03-01T13:53:58.450Z,2.247009
2023-03-01T13:57:23.784Z,2.196655
2023-03-01T14:00:49.916Z,2.247009
2023-03-01T14:04:15.233Z,2.236938
2023-03-01T14:07:40.507Z,2.267151
2023-03-01T14:11:06.436Z,2.267151
2023-03-01T14:14:31.877Z,2.13623
2023-03-01T14:17:57.158Z,2.055664
2023-03-01T14:21:22.550Z,2.156372
2023-03-01T14:24:47.953Z,2.13623
2023-03-01T14:28:13.322Z,2.206726
2023-03-01T14:31:51.908Z,2.13623
2023-03-01T15:06:03.620Z,2.116089
2023-03-01T15:09:28.797Z,2.085876
2023-03-01T15:12:54.084Z,2.176514
2023-03-01T15:16:19.386Z,2.156372
2023-03-01T15:19:44.505Z,2.226868
2023-03-01T15:23:09.743Z,2.045593
2023-03-01T15:26:35.299Z,1.995239
2023-03-01T15:30:00.565Z,1.88446
2023-03-01T15:33:25.773Z,1.904602
2023-03-01T15:36:51.100Z,1.844177
2023-03-01T15:40:16.300Z,1.88446
2023-03-01T15:43:41.508Z,2.055664
2023-03-01T15:47:06.764Z,2.055664
2023-03-01T15:50:32.007Z,2.206726
2023-03-01T15:53:57.295Z,2.13623
2023-03-01T15:57:22.577Z,2.095947
2023-03-01T16:00:59.712Z,2.206726
2023-03-01T16:04:13.034Z,2.247009
2023-03-01T16:07:38.586Z,2.226868
2023-03-01T16:11:03.514Z,1.904602
2023-03-01T16:14:28.886Z,1.864319
2023-03-01T16:17:54.123Z,1.803894
2023-03-01T16:21:19.407Z,1.662903
2023-03-01T16:24:44.638Z,1.662903
2023-03-01T16:28:10.439Z,1.602478
2023-03-01T16:31:35.492Z,1.451416
2023-03-01T16:35:00.361Z,1.441345
2023-03-01T16:38:25.620Z,1.330566
2023-03-01T16:41:50.847Z,1.421204
2023-03-01T16:45:24.172Z,1.290283
2023-03-01T16:48:41.349Z,1.219788
2023-03-01T16:52:06.607Z,1.159363
2023-03-01T16:55:31.788Z,1.239929
2023-03-01T16:58:57.012Z,1.37085
2023-03-01T17:02:22.228Z,1.411133
2023-03-01T17:05:47.492Z,1.552124
2023-03-01T17:09:12.707Z,1.542053
2023-03-01T17:12:37.952Z,1.542053
2023-03-01T17:16:03.199Z,1.481628
2023-03-01T17:19:28.472Z,1.401062
2023-03-01T17:22:53.729Z,1.421204
2023-03-01T17:26:18.956Z,1.360779
2023-03-01T17:29:44.176Z,1.360779
2023-03-01T17:33:09.385Z,1.441345
2023-03-01T17:36:34.618Z,1.401062
2023-03-01T17:39:59.895Z,1.300354
2023-03-01T17:43:25.003Z,1.199646
2023-03-01T17:46:50.169Z,1.11908
2023-03-01T17:50:15.360Z,1.179504
2023-03-01T17:53:40.544Z,1.078796
2023-03-01T17:57:05.768Z,1.058655
2023-03-01T18:00:30.899Z,1.078796
2023-03-01T18:03:56.109Z,0.957947
2023-03-01T18:07:21.321Z,0.86731
2023-03-01T18:10:46.482Z,0.957947
2023-03-01T18:14:11.691Z,0.927734
2023-03-01T18:17:36.836Z,0.86731
2023-03-01T18:21:02.014Z,0.796814
2023-03-01T18:24:27.170Z,0.605469
2023-03-01T18:27:52.361Z,0.545044
2023-03-01T18:31:17.653Z,0.545044
2023-03-01T18:34:42.694Z,0.534973
2023-03-01T18:38:07.907Z,0.444336
2023-03-01T18:41:33.409Z,0.283203
2023-03-01T18:44:58.338Z,0.232849
2023-03-01T18:48:23.631Z,0.202637
2023-03-01T18:51:48.999Z,0.232849
2023-03-01T18:55:13.984Z,0.232849
2023-03-01T18:58:39.186Z,0.212708
2023-03-01T19:02:04.390Z,0.182495
2023-03-01T19:05:29.551Z,0.212708
2023-03-01T19:08:54.702Z,0.293274
2023-03-01T19:12:19.902Z,0.414124
2023-03-01T19:15:45.136Z,0.424194
2023-03-01T19:19:10.322Z,0.49469
2023-03-01T19:22:35.459Z,0.333557
2023-03-01T19:26:00.600Z,0.353699
2023-03-01T19:29:25.809Z,0.464478
2023-03-01T19:32:50.968Z,0.383911
2023-03-01T19:36:16.126Z,0.36377
2023-03-01T19:39:41.449Z,0.444336
2023-03-01T19:43:06.730Z,0.424194
2023-03-01T19:46:32.128Z,0.49469
2023-03-01T19:49:57.111Z,0.444336
2023-03-01T19:53:22.270Z,0.333557
2023-03-01T19:56:47.463Z,0.353699
2023-03-01T20:00:12.585Z,0.414124
2023-03-01T20:03:37.773Z,0.353699
2023-03-01T20:07:02.949Z,0.333557
2023-03-01T20:10:28.129Z,0.293274
2023-03-01T20:13:53.332Z,0.414124
2023-03-01T20:17:18.484Z,0.232849
2023-03-01T20:20:43.657Z,0.152283
2023-03-01T20:24:08.826Z,0.24292
2023-03-01T20:27:33.980Z,0.101929
2023-03-01T20:30:59.164Z,0.041504
2023-03-01T20:34:24.313Z,-0.049133
2023-03-01T20:37:49.461Z,0.031433
2023-03-01T20:41:14.632Z,0.071716
2023-03-01T20:44:39.802Z,-0.00885
2023-03-01T20:48:05.019Z,-0.149841
2023-03-01T20:51:30.147Z,-0.190125
2023-03-01T20:54:55.305Z,-0.220337
2023-03-01T20:58:20.468Z,-0.341187
2023-03-01T21:01:45.651Z,-0.220337
2023-03-01T21:05:10.850Z,-0.220337
2023-03-01T21:08:36.011Z,-0.190125
2023-03-01T21:12:01.177Z,-0.230408
2023-03-01T21:15:29.254Z,-0.230408
2023-03-01T21:18:51.551Z,-0.149841
2023-03-01T21:22:16.766Z,-0.049133
2023-03-01T21:25:41.921Z,-0.028992
2023-03-01T21:29:07.091Z,0.001221
2023-03-01T21:32:32.328Z,-0.039062
2023-03-01T21:35:57.477Z,0.001221
2023-03-01T21:39:22.639Z,-0.049133
2023-03-01T21:42:47.819Z,0.041504
2023-03-01T21:46:13.183Z,-0.139771
2023-03-01T21:49:38.165Z,-0.190125
2023-03-01T21:53:03.350Z,-0.280762
2023-03-01T21:56:28.541Z,-0.462036
2023-03-01T21:59:53.684Z,-0.421753
2023-03-01T22:03:18.921Z,-0.371399
2023-03-01T22:06:44.026Z,-0.361328
2023-03-01T22:10:09.232Z,-0.290833
2023-03-01T22:13:34.389Z,-0.220337
2023-03-01T22:16:59.632Z,-0.250549
2023-03-01T22:20:24.707Z,-0.290833
2023-03-01T22:23:49.912Z,-0.220337
2023-03-01T22:27:15.063Z,-0.361328
2023-03-01T22:30:40.246Z,-0.421753
2023-03-01T22:34:05.387Z,-0.431824
2023-03-01T22:37:30.551Z,-0.431824
2023-03-01T22:40:55.722Z,-0.441895
2023-03-01T22:44:20.930Z,-0.331116
2023-03-01T22:47:46.113Z,-0.361328
2023-03-01T22:51:11.253Z,-0.391541
2023-03-01T22:54:36.421Z,-0.492249
2023-03-01T22:58:01.591Z,-0.51239
2023-03-01T23:01:26.747Z,-0.623169
2023-03-01T23:04:51.956Z,-0.703735
2023-03-01T23:08:17.080Z,-0.623169
2023-03-01T23:11:42.240Z,-0.552673
2023-03-01T23:15:07.427Z,-0.472107
2023-03-01T23:18:32.581Z,-0.421753
2023-03-01T23:21:57.777Z,-0.371399
2023-03-01T23:25:22.909Z,-0.310974
2023-03-01T23:28:48.061Z,-0.472107
2023-03-01T23:32:13.341Z,-0.542603
2023-03-01T23:35:38.485Z,-0.572815
2023-03-01T23:39:03.643Z,-0.623169
2023-03-01T23:42:28.774Z,-0.653381
2023-03-01T23:45:55.033Z,-0.733948
2023-03-01T23:49:20.161Z,-0.784302
2023-03-01T23:52:45.301Z,-0.76416
2023-03-01T23:56:10.479Z,-0.693665
2023-03-01T23:59:35.626Z,-0.623169
